CDT,Max TemperatureF,Mean TemperatureF,Min TemperatureF,Max Dew PointF,MeanDew PointF,Min DewpointF,Max Humidity, Mean Humidity, Min Humidity, Max Sea Level PressureIn, Mean Sea Level PressureIn, Min Sea Level PressureIn, Max VisibilityMiles, Mean VisibilityMiles, Min VisibilityMiles, Max Wind SpeedMPH, Mean Wind SpeedMPH, Max Gust SpeedMPH,PrecipitationIn, CloudCover, Events, WindDirDegrees
2012-9-1,91,83,75,77,74,71,97,82,50,30.22,30.15,30.08,10,6,0,7,1,,0.00,3,Fog,208
2012-9-2,91,82,73,77,74,72,94,81,57,30.11,30.06,29.97,10,7,0,9,1,,0.01,5,Fog,221
2012-9-3,91,82,75,77,75,72,94,86,59,30.05,29.99,29.93,10,7,2,13,4,18,0.08,5,Rain-Thunderstorm,206
2012-9-4,80,76,71,77,74,70,100,92,83,30.00,29.94,29.87,10,5,1,15,5,25,2.34,8,Rain-Thunderstorm,187
2012-9-5,86,80,73,75,73,71,96,86,70,29.93,29.89,29.85,10,7,0,8,3,,0.00,7,Fog-Rain,51
2012-9-6,91,83,75,76,74,73,94,82,57,29.99,29.95,29.90,10,9,4,8,3,,0.00,5,,116
2012-9-7,91,81,71,75,72,69,97,84,48,30.00,29.94,29.85,10,6,0,8,1,,0.00,4,Fog,155
2012-9-8,93,80,71,75,72,68,94,86,55,29.92,29.86,29.78,10,7,2,10,1,24,0.06,4,Rain-Thunderstorm,350
2012-9-9,82,72,63,66,61,58,93,74,42,30.04,29.98,29.90,10,10,7,8,4,,0.01,0,,340
2012-9-10,86,70,57,65,59,56,93,72,38,30.11,30.08,30.04,10,10,7,9,2,,0.00,0,,26
2012-9-11,86,72,59,65,60,56,93,73,38,30.21,30.15,30.09,10,9,6,12,2,18,0.01,1,,75
2012-9-12,86,74,64,67,64,62,90,73,47,30.24,30.18,30.14,10,10,7,13,4,20,0.00,2,,103
2012-9-13,87,75,63,68,64,61,93,74,43,30.23,30.18,30.13,10,9,5,10,2,,0.01,0,,79
2012-9-14,87,75,64,68,65,61,93,75,51,30.19,30.16,30.11,10,9,4,9,2,,0.00,2,,50
2012-9-15,88,76,66,71,68,65,93,77,53,30.17,30.11,30.06,10,10,8,7,2,,0.00,5,,58
2012-9-16,90,79,69,72,70,66,94,82,51,30.08,30.03,29.96,10,7,0,29,3,36,0.86,4,Fog-Rain-Thunderstorm,178
2012-9-17,79,74,69,73,71,68,100,92,78,30.02,29.90,29.78,10,8,1,12,3,20,0.81,5,Rain-Thunderstorm,152
2012-9-18,82,75,68,72,69,64,94,87,60,29.99,29.82,29.72,10,8,0,17,6,25,0.96,6,Fog-Rain-Thunderstorm,253
2012-9-19,80,70,59,63,58,53,93,73,42,30.11,30.05,29.99,10,9,4,9,3,,0.00,0,,344
2012-9-20,84,70,55,65,58,54,93,73,41,30.12,30.07,30.01,10,9,6,5,1,,0.01,0,,340
2012-9-21,87,73,59,70,63,57,93,76,44,30.08,30.04,29.99,10,8,5,5,1,,0.01,0,,55
2012-9-22,89,74,61,70,64,59,94,79,44,30.11,30.06,30.02,10,6,2,5,1,,0.00,1,,327
2012-9-23,89,74,60,66,61,54,94,81,34,30.18,30.13,30.10,10,5,1,8,1,,0.01,0,,8
2012-9-24,82,69,55,61,55,48,93,69,31,30.22,30.16,30.11,10,10,9,9,2,,0.00,0,,32
2012-9-25,84,68,52,65,54,49,93,72,32,30.19,30.14,30.10,10,9,6,7,1,,0.01,0,,133
2012-9-26,87,72,57,69,64,55,93,77,51,30.17,30.14,30.09,10,9,6,10,2,20,0.00,1,,123
2012-9-27,90,75,62,72,66,61,96,80,51,30.19,30.13,30.06,10,7,2,7,1,,0.01,0,,75
2012-9-28,90,76,64,73,68,64,100,84,50,30.12,30.07,29.99,10,6,0,4,0,,0.00,3,Fog,159
2012-9-29,86,76,69,73,70,66,97,88,53,30.02,29.96,29.90,10,5,2,4,0,,0.09,5,Rain,295
2012-9-30,77,73,69,73,71,68,100,92,83,29.91,29.80,29.66,10,6,1,13,3,24,0.65,7,Rain,147